createdAt,value
2023-10-20T00:01:02.035Z,25.33
2023-10-20T00:03:29.179Z,25.02
2023-10-20T00:05:57.729Z,24.75
2023-10-20T00:08:24.709Z,25.15
2023-10-20T00:10:52.094Z,25.48
2023-10-20T00:13:19.058Z,26.23
2023-10-20T00:15:46.846Z,26.45
2023-10-20T00:18:14.568Z,26.38
2023-10-20T00:20:41.509Z,27.13
2023-10-20T00:23:08.521Z,26.95
2023-10-20T00:25:35.437Z,29.20
2023-10-20T00:28:02.420Z,29.42
2023-10-20T00:30:29.412Z,27.95
2023-10-20T00:33:00.272Z,29.05
2023-10-20T00:35:27.211Z,30.88
2023-10-20T00:37:54.323Z,30.92
2023-10-20T00:40:21.316Z,31.83
2023-10-20T00:42:48.327Z,31.33
2023-10-20T00:45:15.386Z,32.97
2023-10-20T00:47:46.143Z,33.28
2023-10-20T00:50:18.185Z,34.28
2023-10-20T00:52:51.106Z,33.13
2023-10-20T00:55:23.407Z,32.45
2023-10-20T00:57:51.758Z,33.00
2023-10-20T01:00:18.949Z,34.67
2023-10-20T01:02:46.019Z,33.33
2023-10-20T01:05:16.345Z,35.40
2023-10-20T01:07:45.103Z,34.38
2023-10-20T01:10:12.234Z,34.53
2023-10-20T01:12:40.320Z,36.92
2023-10-20T01:15:08.453Z,35.58
2023-10-20T01:17:35.995Z,36.83
2023-10-20T01:20:07.707Z,36.70
2023-10-20T01:22:35.353Z,35.03
2023-10-20T01:25:02.411Z,37.45
2023-10-20T01:27:29.924Z,37.00
2023-10-20T01:29:57.004Z,37.20
2023-10-20T01:32:23.973Z,36.75
2023-10-20T01:34:51.768Z,36.45
2023-10-20T01:37:19.218Z,35.70
2023-10-20T01:39:46.316Z,34.58
2023-10-20T01:42:13.323Z,34.72
2023-10-20T01:44:40.513Z,34.83
2023-10-20T01:47:07.605Z,36.80
2023-10-20T01:49:34.632Z,34.22
2023-10-20T01:52:01.541Z,35.17
2023-10-20T01:54:29.177Z,35.67
2023-10-20T01:56:56.138Z,35.85
2023-10-20T01:59:23.122Z,35.47
2023-10-20T02:01:50.202Z,35.15
2023-10-20T02:04:17.096Z,36.15
2023-10-20T02:06:44.135Z,35.40
2023-10-20T02:09:11.632Z,36.35
2023-10-20T02:11:38.620Z,38.40
2023-10-20T02:14:05.683Z,35.95
2023-10-20T02:16:33.005Z,36.97
2023-10-20T02:19:00.402Z,36.92
2023-10-20T02:21:27.474Z,36.80
2023-10-20T02:23:54.395Z,37.88
2023-10-20T02:26:22.339Z,38.45
2023-10-20T02:28:49.275Z,39.00
2023-10-20T02:31:20.819Z,37.38
2023-10-20T02:33:49.042Z,39.95
2023-10-20T02:36:21.339Z,38.72
2023-10-20T02:38:53.177Z,42.28
2023-10-20T02:41:20.700Z,39.57
2023-10-20T02:43:47.874Z,41.50
2023-10-20T02:46:17.658Z,43.75
2023-10-20T02:48:44.769Z,42.83
2023-10-20T02:51:14.338Z,41.42
2023-10-20T02:53:42.293Z,41.22
2023-10-20T02:56:21.058Z,41.47
2023-10-20T02:58:48.589Z,42.72
2023-10-20T03:01:19.109Z,43.42
2023-10-20T03:03:46.513Z,44.33
2023-10-20T03:06:13.561Z,42.80
2023-10-20T03:08:41.355Z,44.70
2023-10-20T03:11:09.821Z,43.72
2023-10-20T03:13:37.286Z,44.38
2023-10-20T03:16:04.328Z,44.20
2023-10-20T03:18:31.387Z,45.88
2023-10-20T03:21:02.727Z,44.85
2023-10-20T03:23:31.048Z,44.47
2023-10-20T03:25:58.553Z,43.53
2023-10-20T03:28:25.606Z,44.45
2023-10-20T03:30:52.824Z,44.67
2023-10-20T03:33:20.545Z,45.78
2023-10-20T03:35:47.810Z,46.38
2023-10-20T03:38:15.729Z,46.65
2023-10-20T03:40:43.342Z,46.55
2023-10-20T03:43:11.927Z,44.88
2023-10-20T03:45:43.485Z,46.53
2023-10-20T03:48:11.256Z,47.03
2023-10-20T03:50:43.236Z,47.17
2023-10-20T03:53:13.436Z,45.43
2023-10-20T03:55:40.952Z,46.65
2023-10-20T03:58:07.972Z,45.65
2023-10-20T04:00:38.033Z,46.92
2023-10-20T04:03:05.328Z,45.17
2023-10-20T04:05:33.070Z,47.65
2023-10-20T04:08:01.150Z,47.92
2023-10-20T04:10:28.067Z,45.55
2023-10-20T04:12:55.190Z,48.10
2023-10-20T04:15:26.952Z,47.35
2023-10-20T04:17:54.371Z,47.95
2023-10-20T04:20:22.659Z,48.05
2023-10-20T04:22:52.935Z,48.10
2023-10-20T04:25:24.175Z,48.45
2023-10-20T04:27:59.069Z,48.53
2023-10-20T04:30:45.137Z,47.78
2023-10-20T04:33:30.568Z,49.20
2023-10-20T04:36:15.910Z,49.67
2023-10-20T04:39:03.400Z,48.63
2023-10-20T04:41:48.725Z,49.38
2023-10-20T04:44:15.753Z,48.53
2023-10-20T04:47:06.677Z,48.42
2023-10-20T04:49:52.127Z,47.35
2023-10-20T04:52:19.056Z,47.28
2023-10-20T04:54:46.711Z,47.58
2023-10-20T04:57:23.143Z,48.45
2023-10-20T05:00:09.416Z,47.78
2023-10-20T05:02:52.538Z,46.17
2023-10-20T05:05:27.185Z,48.40
2023-10-20T05:08:04.826Z,46.63
2023-10-20T05:10:32.873Z,47.33
2023-10-20T05:13:00.300Z,47.15
2023-10-20T05:15:28.012Z,45.40
2023-10-20T05:17:55.065Z,47.22
2023-10-20T05:20:22.046Z,43.78
2023-10-20T05:22:49.498Z,46.55
2023-10-20T05:25:17.288Z,46.33
2023-10-20T05:27:44.451Z,44.80
2023-10-20T05:30:14.097Z,46.47
2023-10-20T05:32:41.447Z,46.42
2023-10-20T05:35:10.474Z,45.17
2023-10-20T05:37:37.692Z,44.80
2023-10-20T05:40:05.864Z,43.63
2023-10-20T05:42:33.036Z,44.25
2023-10-20T05:45:03.822Z,44.78
2023-10-20T05:47:31.654Z,43.42
2023-10-20T05:50:00.424Z,44.30
2023-10-20T05:52:28.027Z,43.28
2023-10-20T05:54:57.619Z,42.22
2023-10-20T05:57:25.746Z,42.00
2023-10-20T05:59:53.082Z,43.08
2023-10-20T06:02:20.049Z,42.22
2023-10-20T06:04:47.004Z,41.30
2023-10-20T06:07:14.107Z,41.97
2023-10-20T06:09:41.099Z,42.58
2023-10-20T06:12:11.457Z,41.00
2023-10-20T06:14:38.613Z,41.78
2023-10-20T06:17:05.576Z,43.05
2023-10-20T06:19:32.756Z,39.78
2023-10-20T06:22:03.866Z,40.63
2023-10-20T06:24:31.061Z,40.67
2023-10-20T06:27:03.814Z,40.28
2023-10-20T06:29:34.681Z,39.22
2023-10-20T06:32:08.169Z,40.47
2023-10-20T06:34:42.246Z,40.97
2023-10-20T06:37:09.803Z,37.20
2023-10-20T06:39:38.836Z,38.97
2023-10-20T06:42:10.742Z,37.50
2023-10-20T06:44:37.924Z,39.57
2023-10-20T06:47:05.865Z,38.67
2023-10-20T06:49:33.941Z,37.85
2023-10-20T06:52:04.976Z,37.33
2023-10-20T06:54:32.628Z,35.05
2023-10-20T06:57:00.796Z,36.65
2023-10-20T06:59:27.995Z,33.50
2023-10-20T07:02:01.303Z,34.67
2023-10-20T07:04:30.791Z,32.58
2023-10-20T07:06:58.604Z,31.85
2023-10-20T07:09:25.752Z,30.20
2023-10-20T07:11:53.467Z,28.60
2023-10-20T07:14:23.009Z,28.00
2023-10-20T07:16:50.339Z,26.40
2023-10-20T07:19:17.272Z,25.63
2023-10-20T07:21:44.437Z,26.15
2023-10-20T07:24:11.535Z,23.67
2023-10-20T07:26:41.949Z,25.70
2023-10-20T07:29:09.227Z,23.45
2023-10-20T07:31:39.276Z,23.20
2023-10-20T07:34:10.692Z,21.45
2023-10-20T07:36:37.761Z,21.95
2023-10-20T07:39:05.524Z,21.00
2023-10-20T07:41:32.534Z,20.63
2023-10-20T07:44:04.988Z,19.33
2023-10-20T07:46:32.502Z,20.02
2023-10-20T07:49:00.338Z,19.27
2023-10-20T07:51:28.128Z,19.77
2023-10-20T07:53:55.083Z,19.10
2023-10-20T07:56:22.019Z,18.80
2023-10-20T07:58:49.416Z,17.85
2023-10-20T08:01:16.626Z,18.08
2023-10-20T08:03:48.918Z,16.35
2023-10-20T08:06:17.320Z,16.90
2023-10-20T08:08:45.551Z,16.40
2023-10-20T08:11:13.164Z,15.90
2023-10-20T08:13:40.148Z,15.85
2023-10-20T08:16:09.021Z,14.93
2023-10-20T08:18:36.522Z,15.05
2023-10-20T08:21:10.677Z,15.30
2023-10-20T08:23:38.954Z,14.43
2023-10-20T08:26:06.654Z,13.25
2023-10-20T08:28:33.627Z,13.52
2023-10-20T08:31:15.099Z,13.40
2023-10-20T08:33:42.496Z,14.65
2023-10-20T08:36:17.211Z,13.85
2023-10-20T08:38:48.377Z,14.23
2023-10-20T08:41:19.431Z,13.65
2023-10-20T08:43:47.409Z,13.13
2023-10-20T08:46:17.396Z,12.73
2023-10-20T08:48:48.930Z,12.73
2023-10-20T08:51:18.576Z,12.70
2023-10-20T08:53:47.334Z,12.30
2023-10-20T08:56:15.284Z,12.68
2023-10-20T08:58:49.440Z,12.18
2023-10-20T09:01:19.813Z,11.85
2023-10-20T09:03:50.138Z,12.15
2023-10-20T09:06:17.566Z,11.45
2023-10-20T09:08:52.540Z,10.60
2023-10-20T09:11:26.573Z,10.82
2023-10-20T09:13:54.505Z,10.52
2023-10-20T09:16:21.660Z,9.57
2023-10-20T09:21:23.819Z,9.23
2023-10-20T09:24:01.928Z,9.30
2023-10-20T09:26:33.223Z,9.43
2023-10-20T09:29:00.750Z,8.88
2023-10-20T09:31:30.027Z,9.18
2023-10-20T09:33:57.218Z,8.70
2023-10-20T09:36:24.813Z,9.38
2023-10-20T09:38:54.232Z,8.43
2023-10-20T09:41:26.698Z,8.20
2023-10-20T09:44:07.014Z,9.00
2023-10-20T09:46:56.393Z,7.28
2023-10-20T09:49:28.349Z,7.18
2023-10-20T09:51:58.237Z,7.32
2023-10-20T09:54:30.927Z,6.90
2023-10-20T09:57:00.666Z,5.88
2023-10-20T09:59:29.171Z,5.50
2023-10-20T10:01:58.659Z,5.32
2023-10-20T10:04:36.882Z,5.20
2023-10-20T10:07:10.641Z,5.82
2023-10-20T10:09:44.314Z,5.50
2023-10-20T10:12:15.955Z,4.78
2023-10-20T10:14:43.112Z,4.40
2023-10-20T10:17:13.137Z,3.40
2023-10-20T10:19:52.849Z,3.30
2023-10-20T10:22:31.738Z,3.25
2023-10-20T10:25:01.603Z,3.00
2023-10-20T10:27:30.160Z,3.40
2023-10-20T10:30:07.466Z,2.80
2023-10-20T10:32:46.253Z,2.78
2023-10-20T10:35:18.292Z,2.20
2023-10-20T10:37:45.631Z,2.47
2023-10-20T10:40:20.441Z,2.17
2023-10-20T10:42:50.730Z,2.33
2023-10-20T10:45:31.657Z,2.40
2023-10-20T10:48:13.312Z,2.47
2023-10-20T10:50:49.134Z,2.40
2023-10-20T10:53:16.719Z,2.30
2023-10-20T10:55:45.184Z,2.42
2023-10-20T10:58:15.994Z,2.38
2023-10-20T11:00:46.077Z,2.38
2023-10-20T11:03:17.433Z,2.38
2023-10-20T11:05:44.853Z,2.10
2023-10-20T11:08:16.385Z,2.20
2023-10-20T11:10:50.583Z,2.25
2023-10-20T11:13:21.822Z,2.23
2023-10-20T11:15:49.474Z,2.22
2023-10-20T11:18:18.132Z,2.00
2023-10-20T11:20:48.929Z,2.10
2023-10-20T11:23:20.586Z,2.28
2023-10-20T11:25:50.060Z,2.20
2023-10-20T11:28:20.239Z,2.15
2023-10-20T11:30:48.160Z,2.40
2023-10-20T11:33:17.348Z,2.30
2023-10-20T11:35:45.636Z,2.42
2023-10-20T11:38:17.681Z,2.22
2023-10-20T11:40:48.772Z,2.33
2023-10-20T11:43:18.595Z,2.33
2023-10-20T11:45:46.377Z,2.50
2023-10-20T11:48:13.478Z,2.40
2023-10-20T11:50:40.993Z,2.20
2023-10-20T11:53:08.306Z,2.00
2023-10-20T11:55:36.249Z,2.40
2023-10-20T11:58:05.340Z,2.20
2023-10-20T12:00:32.848Z,2.15
2023-10-20T12:03:00.063Z,2.08
2023-10-20T12:05:27.194Z,2.45
2023-10-20T12:07:54.203Z,1.98
2023-10-20T12:10:24.995Z,2.20
2023-10-20T12:12:52.848Z,2.30
2023-10-20T12:15:19.963Z,2.05
2023-10-20T12:17:46.977Z,2.40
2023-10-20T12:20:14.560Z,2.40
2023-10-20T12:22:41.757Z,2.40
2023-10-20T12:25:09.750Z,2.70
2023-10-20T12:27:36.937Z,2.80
2023-10-20T12:30:05.694Z,2.95
2023-10-20T12:32:33.540Z,2.90
2023-10-20T12:35:02.971Z,3.10
2023-10-20T12:37:30.067Z,2.97
2023-10-20T12:40:00.368Z,2.92
2023-10-20T12:42:28.475Z,2.97
2023-10-20T12:44:55.600Z,2.95
2023-10-20T12:47:24.058Z,2.60
2023-10-20T12:49:55.877Z,2.78
2023-10-20T12:52:23.196Z,2.80
2023-10-20T12:54:51.635Z,2.60
2023-10-20T12:57:18.681Z,2.50
2023-10-20T12:59:45.632Z,2.70
2023-10-20T13:02:12.619Z,2.40
2023-10-20T13:04:39.612Z,2.22
2023-10-20T13:07:06.586Z,2.40
2023-10-20T13:09:33.582Z,2.55
2023-10-20T13:12:00.757Z,2.50
2023-10-20T13:14:29.666Z,2.50
2023-10-20T13:16:58.171Z,2.70
2023-10-20T13:19:25.209Z,2.70
2023-10-20T13:21:52.359Z,2.67
2023-10-20T13:24:19.302Z,2.45
2023-10-20T13:26:46.359Z,2.58
2023-10-20T13:29:13.443Z,2.70
2023-10-20T13:31:40.460Z,2.50
2023-10-20T13:34:07.577Z,2.60
2023-10-20T13:36:36.213Z,3.00
2023-10-20T13:39:16.606Z,2.72
2023-10-20T13:41:45.740Z,2.70
2023-10-20T13:44:14.149Z,2.70
2023-10-20T13:46:41.097Z,3.00
2023-10-20T13:49:08.073Z,2.55
2023-10-20T13:51:35.312Z,2.70
2023-10-20T13:54:02.306Z,2.50
2023-10-20T13:56:29.257Z,2.90
2023-10-20T13:58:56.260Z,3.20
2023-10-20T14:01:23.659Z,3.15
2023-10-20T14:03:50.989Z,3.35
2023-10-20T14:06:18.533Z,3.55
2023-10-20T14:08:48.271Z,3.60
2023-10-20T14:11:15.898Z,4.20
2023-10-20T14:13:43.003Z,4.85
2023-10-20T14:16:10.308Z,5.00
2023-10-20T14:18:37.578Z,5.10
2023-10-20T14:21:05.766Z,4.68
2023-10-20T14:23:36.603Z,4.63
2023-10-20T14:26:04.147Z,6.03
2023-10-20T14:28:33.961Z,5.65
2023-10-20T14:31:06.740Z,6.40
2023-10-20T14:33:35.361Z,7.38
2023-10-20T14:36:02.474Z,7.53
2023-10-20T14:38:35.731Z,7.10
2023-10-20T14:41:05.669Z,6.68
2023-10-20T14:43:43.772Z,7.35
2023-10-20T14:46:11.308Z,7.63
2023-10-20T14:48:38.987Z,7.28
2023-10-20T14:51:08.291Z,7.80
2023-10-20T14:53:36.145Z,10.02
2023-10-20T14:56:07.369Z,9.10
2023-10-20T14:58:34.545Z,9.80
2023-10-20T15:01:01.875Z,10.43
2023-10-20T15:03:31.951Z,10.02
2023-10-20T15:06:03.332Z,11.40
2023-10-20T15:08:40.000Z,12.02
2023-10-20T15:11:08.946Z,13.25
2023-10-20T15:13:39.543Z,16.85
2023-10-20T15:16:09.876Z,18.83
2023-10-20T15:18:37.825Z,19.95
2023-10-20T15:21:12.260Z,19.58
2023-10-20T15:23:39.450Z,20.95
2023-10-20T15:26:12.223Z,21.42
2023-10-20T15:28:39.570Z,20.50
2023-10-20T15:31:10.447Z,22.23
2023-10-20T15:33:39.771Z,21.02
2023-10-20T15:36:11.065Z,21.25
2023-10-20T15:38:39.008Z,21.42
2023-10-20T15:41:06.303Z,20.90
2023-10-20T15:43:38.404Z,20.17
2023-10-20T15:46:08.614Z,19.65
2023-10-20T15:48:38.394Z,20.15
2023-10-20T15:51:06.386Z,20.15
2023-10-20T15:53:33.596Z,19.00
2023-10-20T15:56:00.732Z,19.95
2023-10-20T15:58:27.733Z,20.48
2023-10-20T16:01:02.006Z,19.70
2023-10-20T16:03:29.797Z,20.33
2023-10-20T16:05:56.947Z,20.23
2023-10-20T16:08:24.315Z,20.27
2023-10-20T16:10:51.417Z,19.23
2023-10-20T16:13:18.355Z,19.02
2023-10-20T16:15:46.538Z,19.25
2023-10-20T16:18:13.769Z,20.10
2023-10-20T16:20:41.488Z,19.58
2023-10-20T16:23:08.815Z,20.08
2023-10-20T16:25:36.739Z,19.42
2023-10-20T16:28:04.529Z,18.77
2023-10-20T16:30:31.533Z,19.67
2023-10-20T16:32:58.616Z,19.83
2023-10-20T16:35:25.875Z,19.50
2023-10-20T16:37:53.732Z,20.15
2023-10-20T16:40:21.940Z,21.05
2023-10-20T16:42:48.878Z,21.90
2023-10-20T16:45:16.560Z,20.42
2023-10-20T16:47:43.574Z,21.02
2023-10-20T16:50:10.739Z,21.35
2023-10-20T16:52:38.467Z,20.85
2023-10-20T16:55:05.945Z,21.52
2023-10-20T16:57:32.914Z,21.00
2023-10-20T17:00:00.025Z,21.55
2023-10-20T17:02:27.116Z,21.55
2023-10-20T17:04:54.237Z,20.75
2023-10-20T17:07:21.239Z,21.80
2023-10-20T17:09:48.163Z,19.73
2023-10-20T17:12:15.251Z,19.75
2023-10-20T17:14:43.628Z,21.92
2023-10-20T17:17:10.628Z,21.17
2023-10-20T17:19:38.689Z,21.58
2023-10-20T17:22:05.690Z,21.13
2023-10-20T17:24:32.595Z,20.77
2023-10-20T17:26:59.552Z,21.85
2023-10-20T17:29:27.093Z,21.85
2023-10-20T17:31:54.073Z,22.23
2023-10-20T17:34:21.178Z,19.80
2023-10-20T17:36:48.259Z,19.77
2023-10-20T17:39:15.411Z,19.95
2023-10-20T17:41:42.340Z,19.48
2023-10-20T17:44:16.335Z,20.45
2023-10-20T17:46:43.328Z,21.10
2023-10-20T17:49:10.412Z,20.25
2023-10-20T17:51:37.971Z,20.23
2023-10-20T17:54:05.177Z,20.38
2023-10-20T17:56:32.462Z,20.08
2023-10-20T17:59:00.156Z,21.40
2023-10-20T18:01:27.505Z,20.40
2023-10-20T18:03:55.461Z,18.80
2023-10-20T18:06:22.746Z,19.60
2023-10-20T18:08:58.140Z,19.60
2023-10-20T18:11:26.372Z,18.88
2023-10-20T18:13:54.640Z,19.38
2023-10-20T18:16:25.510Z,18.25
2023-10-20T18:18:53.064Z,18.58
2023-10-20T18:21:23.295Z,19.73
2023-10-20T18:23:58.463Z,19.10
2023-10-20T18:26:25.657Z,18.10
2023-10-20T18:28:52.819Z,18.20
2023-10-20T18:31:22.295Z,19.08
2023-10-20T18:33:49.436Z,17.77
2023-10-20T18:36:34.837Z,18.65
2023-10-20T18:39:03.038Z,17.98
2023-10-20T18:41:30.956Z,17.45
2023-10-20T18:44:01.200Z,17.40
2023-10-20T18:46:28.224Z,16.40
2023-10-20T18:48:58.880Z,16.67
2023-10-20T18:51:25.828Z,15.40
2023-10-20T18:53:53.368Z,16.38
2023-10-20T18:56:20.482Z,15.05
2023-10-20T18:58:47.877Z,15.68
2023-10-20T19:01:15.000Z,15.32
2023-10-20T19:03:44.364Z,15.15
2023-10-20T19:06:13.814Z,15.40
2023-10-20T19:08:41.656Z,15.00
2023-10-20T19:11:12.028Z,15.57
2023-10-20T19:13:39.219Z,15.73
2023-10-20T19:16:06.657Z,16.05
2023-10-20T19:18:34.110Z,17.02
2023-10-20T19:21:03.858Z,17.55
2023-10-20T19:23:31.342Z,17.67
2023-10-20T19:26:13.018Z,17.75
2023-10-20T19:28:40.086Z,18.45
2023-10-20T19:31:11.085Z,18.17
2023-10-20T19:33:39.195Z,18.67
2023-10-20T19:36:09.538Z,19.30
2023-10-20T19:38:37.872Z,19.73
2023-10-20T19:41:05.006Z,20.63
2023-10-20T19:43:31.973Z,20.40
2023-10-20T19:45:59.022Z,20.13
2023-10-20T19:48:26.297Z,19.23
2023-10-20T19:50:53.403Z,18.65
2023-10-20T19:53:20.924Z,18.10
2023-10-20T19:55:47.912Z,18.27
2023-10-20T19:58:14.962Z,17.23
2023-10-20T20:00:42.138Z,17.27
2023-10-20T20:03:11.181Z,17.88
2023-10-20T20:05:38.279Z,18.13
2023-10-20T20:08:05.348Z,18.33
2023-10-20T20:10:32.382Z,17.80
2023-10-20T20:12:59.315Z,17.50
2023-10-20T20:15:26.441Z,16.42
2023-10-20T20:17:53.464Z,15.57
2023-10-20T20:20:20.527Z,14.75
2023-10-20T20:22:49.834Z,15.38
2023-10-20T20:25:16.859Z,15.48
2023-10-20T20:27:43.878Z,15.63
2023-10-20T20:30:11.535Z,13.98
2023-10-20T20:32:38.612Z,14.77
2023-10-20T20:35:07.345Z,14.68
2023-10-20T20:37:34.515Z,15.45
2023-10-20T20:40:01.560Z,15.65
2023-10-20T20:42:28.479Z,16.02
2023-10-20T20:44:55.663Z,16.02
2023-10-20T20:47:22.753Z,16.67
2023-10-20T20:49:49.688Z,16.70
2023-10-20T20:52:17.408Z,15.85
2023-10-20T20:54:44.415Z,16.73
2023-10-20T20:57:11.398Z,16.23
2023-10-20T20:59:38.597Z,15.60
2023-10-20T21:02:05.726Z,16.73
2023-10-20T21:04:32.930Z,16.73
2023-10-20T21:07:01.135Z,17.65
2023-10-20T21:09:30.790Z,16.35
2023-10-20T21:11:57.759Z,16.83
2023-10-20T21:14:24.856Z,16.17
2023-10-20T21:16:51.832Z,17.33
2023-10-20T21:19:19.564Z,17.13
2023-10-20T21:21:46.454Z,16.48
2023-10-20T21:24:14.030Z,17.17
2023-10-20T21:26:41.154Z,17.40
2023-10-20T21:29:08.785Z,17.25
2023-10-20T21:31:35.820Z,16.17
2023-10-20T21:34:02.791Z,17.10
2023-10-20T21:36:29.850Z,17.02
2023-10-20T21:38:56.854Z,17.67
2023-10-20T21:41:24.122Z,17.70
2023-10-20T21:43:51.014Z,16.88
2023-10-20T21:46:17.989Z,17.25
2023-10-20T21:48:44.946Z,17.17
2023-10-20T21:51:12.195Z,17.83
2023-10-20T21:53:40.036Z,16.30
2023-10-20T21:56:12.623Z,16.52
2023-10-20T21:58:39.965Z,17.25
2023-10-20T22:01:10.794Z,15.93
2023-10-20T22:03:41.015Z,16.33
2023-10-20T22:06:09.866Z,16.15
2023-10-20T22:08:37.060Z,15.65
2023-10-20T22:11:04.143Z,15.43
2023-10-20T22:13:31.404Z,16.50
2023-10-20T22:15:58.379Z,15.70
2023-10-20T22:18:25.757Z,14.63
2023-10-20T22:20:53.012Z,15.38
2023-10-20T22:23:20.064Z,15.13
2023-10-20T22:25:47.100Z,15.27
2023-10-20T22:28:14.060Z,14.82
2023-10-20T22:30:41.173Z,15.88
2023-10-20T22:33:08.212Z,14.25
2023-10-20T22:35:35.374Z,14.93
2023-10-20T22:38:02.460Z,14.90
2023-10-20T22:40:29.387Z,13.70
2023-10-20T22:42:57.094Z,14.00
2023-10-20T22:45:24.069Z,13.50
2023-10-20T22:47:51.083Z,13.23
2023-10-20T22:50:21.084Z,12.85
2023-10-20T22:52:48.813Z,14.00
2023-10-20T22:55:16.238Z,12.93
2023-10-20T22:57:46.350Z,12.90
2023-10-20T23:00:14.385Z,12.98
2023-10-20T23:02:41.804Z,12.88
2023-10-20T23:05:10.600Z,12.77
2023-10-20T23:07:37.723Z,12.30
2023-10-20T23:10:05.891Z,13.30
2023-10-20T23:12:34.232Z,12.10
2023-10-20T23:15:01.823Z,12.60
2023-10-20T23:17:29.159Z,13.10
2023-10-20T23:19:57.889Z,13.18
2023-10-20T23:22:26.463Z,12.18
2023-10-20T23:24:54.262Z,12.43
2023-10-20T23:27:21.200Z,11.70
2023-10-20T23:29:48.403Z,12.07
2023-10-20T23:32:15.363Z,12.65
2023-10-20T23:34:42.706Z,12.30
2023-10-20T23:37:09.648Z,12.40
2023-10-20T23:39:36.977Z,13.13
2023-10-20T23:42:05.458Z,12.05
2023-10-20T23:44:32.631Z,12.15
2023-10-20T23:46:59.670Z,11.85
2023-10-20T23:49:26.820Z,12.55
2023-10-20T23:51:53.799Z,12.55
2023-10-20T23:54:20.906Z,12.35
2023-10-20T23:56:47.974Z,13.25
2023-10-20T23:59:14.891Z,12.23
